createdAt,value
2023-02-28T00:00:27.525Z,2.30
2023-02-28T00:02:55.805Z,2.20
2023-02-28T00:05:27.473Z,2.80
2023-02-28T00:07:56.197Z,1.50
2023-02-28T00:10:27.555Z,2.07
2023-02-28T00:13:00.984Z,2.20
2023-02-28T00:15:29.381Z,1.70
2023-02-28T00:17:57.527Z,2.33
2023-02-28T00:20:26.033Z,2.20
2023-02-28T00:22:55.585Z,2.67
2023-02-28T00:25:25.901Z,2.30
2023-02-28T00:27:54.450Z,2.13
2023-02-28T00:30:25.606Z,3.23
2023-02-28T00:32:53.973Z,2.77
2023-02-28T00:35:21.983Z,2.27
2023-02-28T00:37:50.819Z,2.47
2023-02-28T00:40:19.106Z,2.20
2023-02-28T00:42:47.198Z,2.60
2023-02-28T00:45:15.298Z,2.70
2023-02-28T00:47:44.718Z,2.73
2023-02-28T00:50:13.303Z,2.33
2023-02-28T00:52:41.195Z,2.43
2023-02-28T00:55:10.053Z,2.40
2023-02-28T00:57:38.096Z,2.23
2023-02-28T01:00:07.322Z,2.47
2023-02-28T01:02:35.456Z,2.57
2023-02-28T01:05:05.718Z,2.80
2023-02-28T01:07:33.801Z,2.47
2023-02-28T01:10:01.783Z,2.70
2023-02-28T01:12:31.032Z,2.03
2023-02-28T01:14:59.742Z,3.00
2023-02-28T01:17:28.116Z,2.60
2023-02-28T01:19:57.293Z,2.87
2023-02-28T01:22:26.605Z,2.57
2023-02-28T01:24:55.153Z,1.67
2023-02-28T01:27:23.182Z,2.93
2023-02-28T01:29:52.721Z,3.07
2023-02-28T01:32:20.830Z,2.13
2023-02-28T01:34:48.968Z,2.57
2023-02-28T01:37:17.111Z,2.60
2023-02-28T01:39:46.563Z,3.10
2023-02-28T01:42:14.817Z,2.50
2023-02-28T01:45:02.247Z,2.77
2023-02-28T01:47:33.714Z,2.57
2023-02-28T01:50:04.011Z,2.47
2023-02-28T01:52:33.790Z,2.90
2023-02-28T01:55:06.465Z,2.83
2023-02-28T01:57:38.861Z,3.07
2023-02-28T02:00:14.238Z,3.53
2023-02-28T02:02:45.365Z,2.40
2023-02-28T02:05:16.447Z,2.80
2023-02-28T02:07:47.423Z,3.03
2023-02-28T02:10:19.100Z,3.07
2023-02-28T02:13:06.154Z,2.67
2023-02-28T02:15:38.655Z,3.50
2023-02-28T02:18:18.316Z,3.07
2023-02-28T02:21:07.649Z,2.40
2023-02-28T02:24:05.459Z,3.27
2023-02-28T02:27:03.317Z,2.50
2023-02-28T02:29:56.445Z,2.60
2023-02-28T02:33:05.648Z,3.03
2023-02-28T02:35:40.987Z,3.67
2023-02-28T02:38:12.894Z,3.30
2023-02-28T02:40:52.737Z,3.07
2023-02-28T02:43:27.664Z,3.00
2023-02-28T02:45:58.575Z,2.00
2023-02-28T02:48:31.499Z,3.30
2023-02-28T02:51:03.778Z,3.27
2023-02-28T02:53:35.428Z,2.90
2023-02-28T02:56:05.543Z,3.57
2023-02-28T02:58:37.568Z,2.53
2023-02-28T03:01:07.044Z,3.10
2023-02-28T03:03:36.600Z,3.60
2023-02-28T03:06:06.997Z,3.43
2023-02-28T03:08:38.066Z,3.40
2023-02-28T03:11:08.752Z,3.83
2023-02-28T03:13:50.969Z,3.47
2023-02-28T03:16:37.465Z,3.23
2023-02-28T03:19:26.415Z,3.00
2023-02-28T03:22:05.973Z,3.27
2023-02-28T03:24:38.202Z,3.17
2023-02-28T03:27:09.752Z,3.40
2023-02-28T03:29:41.175Z,3.77
2023-02-28T03:32:22.599Z,3.63
2023-02-28T03:34:56.224Z,3.37
2023-02-28T03:37:27.589Z,3.40
2023-02-28T03:40:01.353Z,4.17
2023-02-28T03:42:31.779Z,3.50
2023-02-28T03:45:02.915Z,4.30
2023-02-28T03:47:37.144Z,2.50
2023-02-28T03:50:09.911Z,3.60
2023-02-28T03:52:45.506Z,2.80
2023-02-28T03:55:16.817Z,4.80
2023-02-28T03:57:54.932Z,4.03
2023-02-28T04:00:29.151Z,3.67
2023-02-28T04:02:57.371Z,4.30
2023-02-28T04:05:26.056Z,3.13
2023-02-28T04:07:56.030Z,3.00
2023-02-28T04:10:24.413Z,3.63
2023-02-28T04:12:52.477Z,4.00
2023-02-28T04:15:23.753Z,3.93
2023-02-28T04:17:51.687Z,4.10
2023-02-28T04:20:19.933Z,4.37
2023-02-28T04:22:48.015Z,4.50
2023-02-28T04:25:17.561Z,4.47
2023-02-28T04:27:45.742Z,3.83
2023-02-28T04:30:14.657Z,4.40
2023-02-28T04:32:42.739Z,3.70
2023-02-28T04:35:12.464Z,4.03
2023-02-28T04:37:40.534Z,4.50
2023-02-28T04:40:09.873Z,3.70
2023-02-28T04:42:39.355Z,3.80
2023-02-28T04:45:11.097Z,3.57
2023-02-28T04:47:39.169Z,3.90
2023-02-28T04:50:07.869Z,4.00
2023-02-28T04:52:35.861Z,4.60
2023-02-28T04:55:03.910Z,3.80
2023-02-28T04:57:32.319Z,4.03
2023-02-28T05:00:01.642Z,4.20
2023-02-28T05:02:29.706Z,4.57
2023-02-28T05:04:57.651Z,4.73
2023-02-28T05:07:25.674Z,4.13
2023-02-28T05:09:54.066Z,4.30
2023-02-28T05:12:22.121Z,4.00
2023-02-28T05:14:50.142Z,3.87
2023-02-28T05:17:19.540Z,4.27
2023-02-28T05:19:47.465Z,4.47
2023-02-28T05:22:17.761Z,4.97
2023-02-28T05:24:45.815Z,4.80
2023-02-28T05:27:14.026Z,4.03
2023-02-28T05:29:44.276Z,4.67
2023-02-28T05:32:12.820Z,4.10
2023-02-28T05:34:42.773Z,3.10
2023-02-28T05:37:14.960Z,4.33
2023-02-28T05:39:43.195Z,4.83
2023-02-28T05:42:11.345Z,4.00
2023-02-28T05:44:39.398Z,5.30
2023-02-28T05:47:07.439Z,4.80
2023-02-28T05:49:35.626Z,4.00
2023-02-28T05:52:05.292Z,4.77
2023-02-28T05:54:33.626Z,4.30
2023-02-28T05:57:08.012Z,3.80
2023-02-28T05:59:41.086Z,3.73
2023-02-28T06:02:15.145Z,4.27
2023-02-28T06:04:43.906Z,4.37
2023-02-28T06:07:13.937Z,4.40
2023-02-28T06:09:42.700Z,5.20
2023-02-28T06:12:11.994Z,4.70
2023-02-28T06:14:40.047Z,4.23
2023-02-28T06:17:08.018Z,5.20
2023-02-28T06:19:38.103Z,5.23
2023-02-28T06:22:06.532Z,4.50
2023-02-28T06:24:36.205Z,5.27
2023-02-28T06:27:05.962Z,5.43
2023-02-28T06:29:35.015Z,4.17
2023-02-28T06:32:03.204Z,4.77
2023-02-28T06:34:31.870Z,5.10
2023-02-28T06:37:03.153Z,3.90
2023-02-28T06:39:31.751Z,5.00
2023-02-28T06:42:01.110Z,4.80
2023-02-28T06:44:35.963Z,4.70
2023-02-28T06:47:05.607Z,4.73
2023-02-28T06:49:34.712Z,3.60
2023-02-28T06:52:02.936Z,4.00
2023-02-28T06:54:31.154Z,4.87
2023-02-28T06:57:01.369Z,4.67
2023-02-28T06:59:29.498Z,4.63
2023-02-28T07:02:21.252Z,4.10
2023-02-28T07:04:49.253Z,5.40
2023-02-28T07:07:17.385Z,6.23
2023-02-28T07:09:45.391Z,5.90
2023-02-28T07:12:14.924Z,5.40
2023-02-28T07:14:45.761Z,3.90
2023-02-28T07:17:14.022Z,4.30
2023-02-28T07:19:42.177Z,4.40
2023-02-28T07:22:10.106Z,4.20
2023-02-28T07:24:39.246Z,8.23
2023-02-28T07:27:07.496Z,4.10
2023-02-28T07:29:37.214Z,6.83
2023-02-28T07:32:05.356Z,5.10
2023-02-28T07:34:33.353Z,5.37
2023-02-28T07:37:04.716Z,4.47
2023-02-28T07:39:32.632Z,4.57
2023-02-28T07:42:00.725Z,5.40
2023-02-28T07:44:28.808Z,4.50
2023-02-28T07:46:58.363Z,3.70
2023-02-28T07:49:26.363Z,4.07
2023-02-28T07:51:54.350Z,5.00
2023-02-28T07:54:22.288Z,4.67
2023-02-28T07:56:50.213Z,4.73
2023-02-28T07:59:18.212Z,5.67
2023-02-28T08:01:46.488Z,4.10
2023-02-28T08:04:15.748Z,5.23
2023-02-28T08:06:43.765Z,5.53
2023-02-28T08:09:12.486Z,5.13
2023-02-28T08:11:40.379Z,3.40
2023-02-28T08:14:08.314Z,5.20
2023-02-28T08:16:36.295Z,4.90
2023-02-28T08:19:04.271Z,4.57
2023-02-28T08:21:33.981Z,5.03
2023-02-28T08:24:01.952Z,4.80
2023-02-28T08:26:29.977Z,4.20
2023-02-28T08:28:59.329Z,5.80
2023-02-28T08:31:29.028Z,5.57
2023-02-28T08:33:59.793Z,4.03
2023-02-28T08:36:29.681Z,4.17
2023-02-28T08:39:00.565Z,5.57
2023-02-28T08:41:29.095Z,6.20
2023-02-28T08:43:57.265Z,4.03
2023-02-28T08:46:25.723Z,5.77
2023-02-28T08:48:55.138Z,5.03
2023-02-28T08:51:27.763Z,5.10
2023-02-28T08:53:59.722Z,4.17
2023-02-28T08:56:28.941Z,3.80
2023-02-28T08:58:58.458Z,4.60
2023-02-28T09:01:29.441Z,4.27
2023-02-28T09:03:58.663Z,5.73
2023-02-28T09:06:28.963Z,3.83
2023-02-28T09:09:02.080Z,5.40
2023-02-28T09:11:30.858Z,4.20
2023-02-28T09:14:00.148Z,11.53
2023-02-28T09:16:28.569Z,6.47
2023-02-28T09:18:56.574Z,5.10
2023-02-28T09:21:24.645Z,2.40
2023-02-28T09:23:53.598Z,6.53
2023-02-28T09:26:25.129Z,5.30
2023-02-28T09:28:53.983Z,4.70
2023-02-28T09:31:24.902Z,5.20
2023-02-28T09:33:54.414Z,5.67
2023-02-28T09:36:28.948Z,6.60
2023-02-28T09:39:02.473Z,3.87
2023-02-28T09:41:40.894Z,4.83
2023-02-28T09:44:15.041Z,5.13
2023-02-28T09:46:46.789Z,8.83
2023-02-28T09:49:18.161Z,8.10
2023-02-28T09:51:52.384Z,6.17
2023-02-28T09:54:23.640Z,5.10
2023-02-28T09:56:55.792Z,4.27
2023-02-28T09:59:39.958Z,6.50
2023-02-28T10:02:19.845Z,5.53
2023-02-28T10:04:53.570Z,4.73
2023-02-28T10:07:33.219Z,5.77
2023-02-28T10:10:05.224Z,5.70
2023-02-28T10:12:35.584Z,5.40
2023-02-28T10:15:05.379Z,5.87
2023-02-28T10:17:54.910Z,3.97
2023-02-28T10:20:30.871Z,5.40
2023-02-28T10:23:08.371Z,3.00
2023-02-28T10:25:38.008Z,4.80
2023-02-28T10:28:13.547Z,4.80
2023-02-28T10:30:44.909Z,5.80
2023-02-28T10:33:25.529Z,4.77
2023-02-28T10:35:54.360Z,3.87
2023-02-28T10:38:24.847Z,3.97
2023-02-28T10:40:53.385Z,4.20
2023-02-28T10:43:25.590Z,4.10
2023-02-28T10:46:00.754Z,2.77
2023-02-28T10:48:34.124Z,4.10
2023-02-28T10:51:03.511Z,4.80
2023-02-28T10:53:44.831Z,4.57
2023-02-28T10:56:25.295Z,5.00
2023-02-28T10:58:58.239Z,4.57
2023-02-28T11:01:36.200Z,5.03
2023-02-28T11:04:05.043Z,5.10
2023-02-28T11:06:35.083Z,5.07
2023-02-28T11:09:06.677Z,5.10
2023-02-28T11:11:45.941Z,4.50
2023-02-28T11:14:23.215Z,4.73
2023-02-28T11:16:52.570Z,4.97
2023-02-28T11:19:25.876Z,4.63
2023-02-28T11:21:57.919Z,4.80
2023-02-28T11:24:29.981Z,4.20
2023-02-28T11:26:59.086Z,3.87
2023-02-28T11:29:30.385Z,4.47
2023-02-28T11:32:21.763Z,5.67
2023-02-28T11:35:04.102Z,4.43
2023-02-28T11:37:34.113Z,4.27
2023-02-28T11:40:02.418Z,4.80
2023-02-28T11:42:51.300Z,5.90
2023-02-28T11:45:41.631Z,4.00
2023-02-28T11:48:16.933Z,5.30
2023-02-28T11:51:08.911Z,4.80
2023-02-28T11:53:52.895Z,4.77
2023-02-28T11:56:27.946Z,5.63
2023-02-28T11:59:09.994Z,4.90
2023-02-28T12:01:59.388Z,5.93
2023-02-28T12:04:35.587Z,5.33
2023-02-28T12:07:11.723Z,5.07
2023-02-28T12:09:53.137Z,4.63
2023-02-28T12:12:32.776Z,5.40
2023-02-28T12:15:18.547Z,4.60
2023-02-28T12:18:00.676Z,5.20
2023-02-28T12:20:36.336Z,4.67
2023-02-28T12:23:24.269Z,3.70
2023-02-28T12:26:16.800Z,4.60
2023-02-28T12:28:48.876Z,4.50
2023-02-28T12:31:24.044Z,3.87
2023-02-28T12:33:57.764Z,5.33
2023-02-28T12:36:27.284Z,4.33
2023-02-28T12:39:02.545Z,5.10
2023-02-28T12:41:38.637Z,4.17
2023-02-28T12:44:14.424Z,5.27
2023-02-28T12:46:46.567Z,4.97
2023-02-28T12:49:20.946Z,4.33
2023-02-28T12:51:51.152Z,4.13
2023-02-28T12:54:27.291Z,4.00
2023-02-28T12:57:05.010Z,4.40
2023-02-28T12:59:39.817Z,4.07
2023-02-28T13:02:35.585Z,3.43
2023-02-28T13:05:54.608Z,4.10
2023-02-28T13:09:04.442Z,6.10
2023-02-28T13:11:35.834Z,4.70
2023-02-28T13:14:06.949Z,4.70
2023-02-28T13:17:00.687Z,4.60
2023-02-28T13:19:30.774Z,4.63
2023-02-28T13:22:01.691Z,5.97
2023-02-28T13:24:48.726Z,4.47
2023-02-28T13:27:35.982Z,6.63
2023-02-28T13:30:42.373Z,5.90
2023-02-28T13:33:28.547Z,5.57
2023-02-28T13:36:26.818Z,5.83
2023-02-28T13:39:01.120Z,5.10
2023-02-28T13:41:50.034Z,5.87
2023-02-28T13:44:20.786Z,6.43
2023-02-28T13:47:25.754Z,6.67
2023-02-28T13:49:54.824Z,6.50
2023-02-28T13:52:26.024Z,5.63
2023-02-28T13:55:18.234Z,6.13
2023-02-28T13:57:59.219Z,5.50
2023-02-28T14:00:38.282Z,6.10
2023-02-28T14:03:34.648Z,5.07
2023-02-28T14:06:26.153Z,6.67
2023-02-28T14:09:01.186Z,6.53
2023-02-28T14:11:34.021Z,6.43
2023-02-28T14:14:03.112Z,6.00
2023-02-28T14:16:41.153Z,6.57
2023-02-28T14:19:15.263Z,5.37
2023-02-28T14:21:55.738Z,5.80
2023-02-28T14:24:41.681Z,5.77
2023-02-28T14:27:28.790Z,5.90
2023-02-28T14:30:43.324Z,6.33
2023-02-28T14:33:24.504Z,5.30
2023-02-28T14:36:02.907Z,7.03
2023-02-28T14:38:33.996Z,6.33
2023-02-28T14:41:07.214Z,5.10
2023-02-28T14:43:36.603Z,4.10
2023-02-28T14:46:08.277Z,6.90
2023-02-28T14:48:39.935Z,5.33
2023-02-28T14:51:08.174Z,4.90
2023-02-28T14:53:39.295Z,5.90
2023-02-28T14:56:19.913Z,6.90
2023-02-28T14:58:55.277Z,5.80
2023-02-28T15:01:25.462Z,5.67
2023-02-28T15:04:04.810Z,7.30
2023-02-28T15:06:34.369Z,7.20
2023-02-28T15:09:19.488Z,6.03
2023-02-28T15:11:52.038Z,8.00
2023-02-28T15:14:23.750Z,7.93
2023-02-28T15:16:58.143Z,6.57
2023-02-28T15:19:30.555Z,6.27
2023-02-28T15:22:02.225Z,6.90
2023-02-28T15:24:39.686Z,7.10
2023-02-28T15:27:11.963Z,7.10
2023-02-28T15:29:50.204Z,6.40
2023-02-28T15:32:30.503Z,7.40
2023-02-28T15:35:00.300Z,5.70
2023-02-28T15:37:41.401Z,6.70
2023-02-28T15:40:24.517Z,7.50
2023-02-28T15:43:08.222Z,6.93
2023-02-28T15:45:42.092Z,6.47
2023-02-28T15:48:21.873Z,7.13
2023-02-28T15:50:52.420Z,6.97
2023-02-28T15:53:23.876Z,7.93
2023-02-28T15:55:59.155Z,6.70
2023-02-28T15:58:27.927Z,6.30
2023-02-28T16:01:18.908Z,4.60
2023-02-28T16:03:48.973Z,7.00
2023-02-28T16:06:40.295Z,4.17
2023-02-28T16:09:11.689Z,5.30
2023-02-28T16:11:42.706Z,5.30
2023-02-28T16:14:20.298Z,4.77
2023-02-28T16:16:52.659Z,5.53
2023-02-28T16:19:21.177Z,5.90
2023-02-28T16:21:49.740Z,4.73
2023-02-28T16:24:17.695Z,6.23
2023-02-28T16:26:49.409Z,3.63
2023-02-28T16:29:22.908Z,5.37
2023-02-28T16:31:52.509Z,6.33
2023-02-28T16:34:20.462Z,6.20
2023-02-28T16:36:49.663Z,6.47
2023-02-28T16:39:17.794Z,7.27
2023-02-28T16:41:47.859Z,7.50
2023-02-28T16:44:27.203Z,7.17
2023-02-28T16:46:56.585Z,6.37
2023-02-28T16:49:24.734Z,6.10
2023-02-28T16:51:52.719Z,6.83
2023-02-28T16:54:20.772Z,8.00
2023-02-28T16:56:50.056Z,7.03
2023-02-28T16:59:22.044Z,6.23
2023-02-28T17:01:50.515Z,5.50
2023-02-28T17:04:20.001Z,5.17
2023-02-28T17:06:48.103Z,8.20
2023-02-28T17:09:19.426Z,8.00
2023-02-28T17:11:47.800Z,6.40
2023-02-28T17:14:16.512Z,8.07
2023-02-28T17:16:45.433Z,7.00
2023-02-28T17:19:15.185Z,7.57
2023-02-28T17:21:45.396Z,7.63
2023-02-28T17:24:16.544Z,6.40
2023-02-28T17:26:47.307Z,8.10
2023-02-28T17:29:18.255Z,6.70
2023-02-28T17:31:46.557Z,7.17
2023-02-28T17:34:19.126Z,7.87
2023-02-28T17:36:50.212Z,8.23
2023-02-28T17:39:25.022Z,8.10
2023-02-28T17:41:53.478Z,7.67
2023-02-28T17:44:21.615Z,9.27
2023-02-28T17:46:50.902Z,7.93
2023-02-28T17:49:19.273Z,7.80
2023-02-28T17:51:49.937Z,7.33
2023-02-28T17:54:19.147Z,7.50
2023-02-28T17:56:47.177Z,8.10
2023-02-28T17:59:15.501Z,6.13
2023-02-28T18:01:43.582Z,8.10
2023-02-28T18:04:11.734Z,7.30
2023-02-28T18:06:47.450Z,8.03
2023-02-28T18:09:18.233Z,7.07
2023-02-28T18:11:48.986Z,9.17
2023-02-28T18:14:17.804Z,7.97
2023-02-28T18:16:46.672Z,9.57
2023-02-28T18:19:17.334Z,9.17
2023-02-28T18:21:46.431Z,9.83
2023-02-28T18:24:16.153Z,9.77
2023-02-28T18:26:45.385Z,10.20
2023-02-28T18:29:19.154Z,8.63
2023-02-28T18:31:47.432Z,8.33
2023-02-28T18:34:16.611Z,11.17
2023-02-28T18:36:47.268Z,10.00
2023-02-28T18:39:17.156Z,11.37
2023-02-28T18:41:45.372Z,10.07
2023-02-28T18:44:19.870Z,9.57
2023-02-28T18:46:48.713Z,11.27
2023-02-28T18:49:16.967Z,9.37
2023-02-28T18:51:47.159Z,11.20
2023-02-28T18:54:18.134Z,9.00
2023-02-28T18:56:46.312Z,10.27
2023-02-28T18:59:14.541Z,9.47
2023-02-28T19:01:42.554Z,10.57
2023-02-28T19:04:14.551Z,10.80
2023-02-28T19:06:42.939Z,10.67
2023-02-28T19:09:11.171Z,9.63
2023-02-28T19:11:40.892Z,8.60
2023-02-28T19:14:09.619Z,9.40
2023-02-28T19:16:38.040Z,10.60
2023-02-28T19:19:06.393Z,9.47
2023-02-28T19:21:36.738Z,8.93
2023-02-28T19:24:05.620Z,9.67
2023-02-28T19:26:33.769Z,9.93
2023-02-28T19:29:05.850Z,9.70
2023-02-28T19:31:34.365Z,10.23
2023-02-28T19:34:03.332Z,9.73
2023-02-28T19:36:31.475Z,10.00
2023-02-28T19:38:59.599Z,13.37
2023-02-28T19:41:27.915Z,10.70
2023-02-28T19:43:56.097Z,9.80
2023-02-28T19:46:26.267Z,12.20
2023-02-28T19:48:54.881Z,10.17
2023-02-28T19:51:24.064Z,10.67
2023-02-28T19:53:52.378Z,10.13
2023-02-28T19:56:20.713Z,10.83
2023-02-28T19:58:48.786Z,7.70
2023-02-28T20:01:20.392Z,9.70
2023-02-28T20:03:52.077Z,9.27
2023-02-28T20:06:20.193Z,9.33
2023-02-28T20:08:48.403Z,9.50
2023-02-28T20:11:17.809Z,9.80
2023-02-28T20:13:46.145Z,9.00
2023-02-28T20:16:15.867Z,10.33
2023-02-28T20:18:45.851Z,10.17
2023-02-28T20:21:16.885Z,9.33
2023-02-28T20:23:46.325Z,9.57
2023-02-28T20:26:14.304Z,9.37
2023-02-28T20:28:44.062Z,8.97
2023-02-28T20:31:15.446Z,8.63
2023-02-28T20:33:46.917Z,8.40
2023-02-28T20:36:19.583Z,9.30
2023-02-28T20:38:48.652Z,8.90
2023-02-28T20:41:17.235Z,9.70
2023-02-28T20:43:46.021Z,9.60
2023-02-28T20:46:14.741Z,9.67
2023-02-28T20:48:44.131Z,9.17
2023-02-28T20:51:12.509Z,9.23
2023-02-28T20:53:41.922Z,9.90
2023-02-28T20:56:13.614Z,9.53
2023-02-28T20:58:42.029Z,9.40
2023-02-28T21:01:16.155Z,8.77
2023-02-28T21:03:44.726Z,9.23
2023-02-28T21:06:14.744Z,10.07
2023-02-28T21:08:44.905Z,9.30
2023-02-28T21:11:18.418Z,8.53
2023-02-28T21:13:47.773Z,9.77
2023-02-28T21:16:19.144Z,10.53
2023-02-28T21:18:47.103Z,9.83
2023-02-28T21:21:17.129Z,9.43
2023-02-28T21:23:47.712Z,10.50
2023-02-28T21:26:18.617Z,9.70
2023-02-28T21:28:51.338Z,9.40
2023-02-28T21:31:21.238Z,10.73
2023-02-28T21:33:50.274Z,9.77
2023-02-28T21:36:22.555Z,9.97
2023-02-28T21:38:58.554Z,10.40
2023-02-28T21:41:28.137Z,10.47
2023-02-28T21:43:57.153Z,10.47
2023-02-28T21:46:27.769Z,10.97
2023-02-28T21:48:57.019Z,9.30
2023-02-28T21:51:27.355Z,8.37
2023-02-28T21:53:58.735Z,10.30
2023-02-28T21:56:30.510Z,9.20
2023-02-28T21:59:01.253Z,11.50
2023-02-28T22:01:32.187Z,9.50
2023-02-28T22:04:01.439Z,8.80
2023-02-28T22:06:32.469Z,8.93
2023-02-28T22:09:06.028Z,7.73
2023-02-28T22:11:35.500Z,10.00
2023-02-28T22:14:04.367Z,10.37
2023-02-28T22:16:49.656Z,9.70
2023-02-28T22:19:18.974Z,12.53
2023-02-28T22:21:47.535Z,12.10
2023-02-28T22:24:17.904Z,13.43
2023-02-28T22:26:46.285Z,10.63
2023-02-28T22:29:14.311Z,11.60
2023-02-28T22:31:42.387Z,10.30
2023-02-28T22:34:12.766Z,11.17
2023-02-28T22:36:42.284Z,9.20
2023-02-28T22:39:11.999Z,10.30
2023-02-28T22:41:41.850Z,11.03
2023-02-28T22:44:09.942Z,11.20
2023-02-28T22:46:38.914Z,10.37
2023-02-28T22:49:07.848Z,10.50
2023-02-28T22:51:37.128Z,9.90
2023-02-28T22:54:05.751Z,9.87
2023-02-28T22:56:34.213Z,11.47
2023-02-28T22:59:04.277Z,9.50
2023-02-28T23:01:34.807Z,10.20
2023-02-28T23:04:03.002Z,9.97
2023-02-28T23:06:33.291Z,10.07
2023-02-28T23:09:03.342Z,10.90
2023-02-28T23:11:33.292Z,10.53
2023-02-28T23:14:01.565Z,10.77
2023-02-28T23:16:34.242Z,10.07
2023-02-28T23:19:05.579Z,10.00
2023-02-28T23:21:34.325Z,9.60
2023-02-28T23:24:04.240Z,10.70
2023-02-28T23:26:33.250Z,10.43
2023-02-28T23:29:01.735Z,10.97
2023-02-28T23:31:31.397Z,10.20
2023-02-28T23:34:00.610Z,9.60
2023-02-28T23:36:29.510Z,10.60
2023-02-28T23:38:57.902Z,11.23
2023-02-28T23:41:26.475Z,9.77
2023-02-28T23:43:54.706Z,10.40
2023-02-28T23:46:23.197Z,9.43
2023-02-28T23:48:52.542Z,10.60
2023-02-28T23:51:22.697Z,10.67
2023-02-28T23:53:53.192Z,10.43
2023-02-28T23:56:23.393Z,11.50
2023-02-28T23:58:52.082Z,10.10
